sensor_id;sensor_type;location;lat;lon;timestamp;P1;durP1;ratioP1;P2;durP2;ratioP2
15012;SDS011;7603;49.432;11.418;2024-01-11T00:00:02;44.10;;;22.50;;
15012;SDS011;7603;49.432;11.418;2024-01-11T00:02:28;42.73;;;22.97;;
15012;SDS011;7603;49.432;11.418;2024-01-11T00:04:54;46.13;;;22.20;;
15012;SDS011;7603;49.432;11.418;2024-01-11T00:07:20;47.50;;;22.70;;
15012;SDS011;7603;49.432;11.418;2024-01-11T00:09:45;49.00;;;22.23;;
15012;SDS011;7603;49.432;11.418;2024-01-11T00:12:11;51.97;;;22.43;;
15012;SDS011;7603;49.432;11.418;2024-01-11T00:14:37;55.17;;;23.23;;
15012;SDS011;7603;49.432;11.418;2024-01-11T00:17:03;47.33;;;23.50;;
15012;SDS011;7603;49.432;11.418;2024-01-11T00:19:29;45.80;;;23.30;;
15012;SDS011;7603;49.432;11.418;2024-01-11T00:21:57;62.60;;;22.07;;
15012;SDS011;7603;49.432;11.418;2024-01-11T00:24:23;47.83;;;23.20;;
15012;SDS011;7603;49.432;11.418;2024-01-11T00:26:49;56.07;;;23.97;;
15012;SDS011;7603;49.432;11.418;2024-01-11T00:29:14;50.43;;;22.70;;
15012;SDS011;7603;49.432;11.418;2024-01-11T00:31:40;52.23;;;22.97;;
15012;SDS011;7603;49.432;11.418;2024-01-11T00:34:06;48.57;;;22.57;;
15012;SDS011;7603;49.432;11.418;2024-01-11T00:36:35;53.50;;;24.67;;
15012;SDS011;7603;49.432;11.418;2024-01-11T00:39:01;45.70;;;23.27;;
15012;SDS011;7603;49.432;11.418;2024-01-11T00:41:27;49.70;;;23.53;;
15012;SDS011;7603;49.432;11.418;2024-01-11T00:43:53;50.83;;;25.60;;
15012;SDS011;7603;49.432;11.418;2024-01-11T00:46:19;47.23;;;22.83;;
15012;SDS011;7603;49.432;11.418;2024-01-11T00:48:45;50.63;;;24.60;;
15012;SDS011;7603;49.432;11.418;2024-01-11T00:51:11;50.37;;;24.00;;
15012;SDS011;7603;49.432;11.418;2024-01-11T00:53:37;47.03;;;22.53;;
15012;SDS011;7603;49.432;11.418;2024-01-11T00:56:03;45.43;;;23.37;;
15012;SDS011;7603;49.432;11.418;2024-01-11T00:58:28;45.93;;;21.73;;
15012;SDS011;7603;49.432;11.418;2024-01-11T01:00:54;47.53;;;23.53;;
15012;SDS011;7603;49.432;11.418;2024-01-11T01:03:22;54.03;;;29.57;;
15012;SDS011;7603;49.432;11.418;2024-01-11T01:05:51;50.50;;;24.20;;
15012;SDS011;7603;49.432;11.418;2024-01-11T01:08:20;47.30;;;22.90;;
15012;SDS011;7603;49.432;11.418;2024-01-11T01:10:48;45.67;;;22.27;;
15012;SDS011;7603;49.432;11.418;2024-01-11T01:13:13;48.53;;;23.60;;
15012;SDS011;7603;49.432;11.418;2024-01-11T01:15:39;53.00;;;23.07;;
15012;SDS011;7603;49.432;11.418;2024-01-11T01:18:05;64.30;;;25.47;;
15012;SDS011;7603;49.432;11.418;2024-01-11T01:20:31;48.03;;;23.53;;
15012;SDS011;7603;49.432;11.418;2024-01-11T01:22:57;54.30;;;25.73;;
15012;SDS011;7603;49.432;11.418;2024-01-11T01:25:23;62.60;;;27.67;;
15012;SDS011;7603;49.432;11.418;2024-01-11T01:27:49;58.53;;;26.57;;
15012;SDS011;7603;49.432;11.418;2024-01-11T01:30:14;47.63;;;22.57;;
15012;SDS011;7603;49.432;11.418;2024-01-11T01:32:41;45.43;;;23.03;;
15012;SDS011;7603;49.432;11.418;2024-01-11T01:35:07;50.57;;;25.13;;
15012;SDS011;7603;49.432;11.418;2024-01-11T01:37:35;62.57;;;26.50;;
15012;SDS011;7603;49.432;11.418;2024-01-11T01:40:06;45.73;;;23.43;;
15012;SDS011;7603;49.432;11.418;2024-01-11T01:42:33;49.67;;;23.97;;
15012;SDS011;7603;49.432;11.418;2024-01-11T01:44:58;52.07;;;23.67;;
15012;SDS011;7603;49.432;11.418;2024-01-11T01:47:25;44.80;;;25.00;;
15012;SDS011;7603;49.432;11.418;2024-01-11T01:49:52;41.93;;;22.07;;
15012;SDS011;7603;49.432;11.418;2024-01-11T01:52:19;46.90;;;22.13;;
15012;SDS011;7603;49.432;11.418;2024-01-11T01:54:46;45.07;;;23.13;;
15012;SDS011;7603;49.432;11.418;2024-01-11T01:57:13;49.20;;;23.73;;
15012;SDS011;7603;49.432;11.418;2024-01-11T01:59:40;51.17;;;24.53;;
15012;SDS011;7603;49.432;11.418;2024-01-11T02:02:08;41.37;;;20.30;;
15012;SDS011;7603;49.432;11.418;2024-01-11T02:04:35;38.33;;;18.57;;
15012;SDS011;7603;49.432;11.418;2024-01-11T02:07:01;44.77;;;22.10;;
15012;SDS011;7603;49.432;11.418;2024-01-11T02:09:27;41.93;;;22.17;;
15012;SDS011;7603;49.432;11.418;2024-01-11T02:11:53;42.97;;;22.37;;
15012;SDS011;7603;49.432;11.418;2024-01-11T02:14:19;47.57;;;21.63;;
15012;SDS011;7603;49.432;11.418;2024-01-11T02:16:45;43.03;;;22.60;;
15012;SDS011;7603;49.432;11.418;2024-01-11T02:19:14;47.47;;;22.77;;
15012;SDS011;7603;49.432;11.418;2024-01-11T02:21:44;41.93;;;22.67;;
15012;SDS011;7603;49.432;11.418;2024-01-11T02:24:11;48.43;;;23.20;;
15012;SDS011;7603;49.432;11.418;2024-01-11T02:26:44;49.87;;;23.73;;
15012;SDS011;7603;49.432;11.418;2024-01-11T02:29:24;46.23;;;23.20;;
15012;SDS011;7603;49.432;11.418;2024-01-11T02:31:49;45.07;;;23.50;;
15012;SDS011;7603;49.432;11.418;2024-01-11T02:34:15;45.73;;;23.57;;
15012;SDS011;7603;49.432;11.418;2024-01-11T02:36:41;49.00;;;21.90;;
15012;SDS011;7603;49.432;11.418;2024-01-11T02:39:07;42.20;;;23.60;;
15012;SDS011;7603;49.432;11.418;2024-01-11T02:41:33;52.40;;;24.20;;
15012;SDS011;7603;49.432;11.418;2024-01-11T02:44:00;45.80;;;22.80;;
15012;SDS011;7603;49.432;11.418;2024-01-11T02:46:26;45.70;;;22.23;;
15012;SDS011;7603;49.432;11.418;2024-01-11T02:48:51;48.40;;;24.50;;
15012;SDS011;7603;49.432;11.418;2024-01-11T02:51:17;40.67;;;22.53;;
15012;SDS011;7603;49.432;11.418;2024-01-11T02:53:43;54.00;;;23.27;;
15012;SDS011;7603;49.432;11.418;2024-01-11T02:56:08;54.30;;;25.13;;
15012;SDS011;7603;49.432;11.418;2024-01-11T02:58:34;51.00;;;23.37;;
15012;SDS011;7603;49.432;11.418;2024-01-11T03:01:00;51.17;;;23.90;;
15012;SDS011;7603;49.432;11.418;2024-01-11T03:03:25;49.67;;;24.03;;
15012;SDS011;7603;49.432;11.418;2024-01-11T03:05:51;41.37;;;23.53;;
15012;SDS011;7603;49.432;11.418;2024-01-11T03:08:16;55.57;;;24.43;;
15012;SDS011;7603;49.432;11.418;2024-01-11T03:10:42;51.83;;;23.43;;
15012;SDS011;7603;49.432;11.418;2024-01-11T03:13:08;56.23;;;25.93;;
15012;SDS011;7603;49.432;11.418;2024-01-11T03:15:33;50.47;;;24.50;;
15012;SDS011;7603;49.432;11.418;2024-01-11T03:17:59;45.97;;;22.50;;
15012;SDS011;7603;49.432;11.418;2024-01-11T03:20:25;43.87;;;21.83;;
15012;SDS011;7603;49.432;11.418;2024-01-11T03:22:50;50.17;;;23.23;;
15012;SDS011;7603;49.432;11.418;2024-01-11T03:25:19;49.83;;;24.33;;
15012;SDS011;7603;49.432;11.418;2024-01-11T03:27:45;47.50;;;24.37;;
15012;SDS011;7603;49.432;11.418;2024-01-11T03:30:11;60.17;;;24.77;;
15012;SDS011;7603;49.432;11.418;2024-01-11T03:32:37;40.30;;;21.73;;
15012;SDS011;7603;49.432;11.418;2024-01-11T03:35:04;46.83;;;24.03;;
15012;SDS011;7603;49.432;11.418;2024-01-11T03:37:32;47.80;;;24.43;;
15012;SDS011;7603;49.432;11.418;2024-01-11T03:39:57;47.93;;;25.17;;
15012;SDS011;7603;49.432;11.418;2024-01-11T03:42:23;43.93;;;21.60;;
15012;SDS011;7603;49.432;11.418;2024-01-11T03:44:49;47.63;;;22.23;;
15012;SDS011;7603;49.432;11.418;2024-01-11T03:47:15;48.97;;;26.27;;
15012;SDS011;7603;49.432;11.418;2024-01-11T03:49:40;61.50;;;26.03;;
15012;SDS011;7603;49.432;11.418;2024-01-11T03:52:06;78.13;;;31.97;;
15012;SDS011;7603;49.432;11.418;2024-01-11T03:54:32;54.70;;;25.73;;
15012;SDS011;7603;49.432;11.418;2024-01-11T03:56:57;44.30;;;23.40;;
15012;SDS011;7603;49.432;11.418;2024-01-11T03:59:23;51.00;;;24.27;;
15012;SDS011;7603;49.432;11.418;2024-01-11T04:01:49;44.87;;;23.53;;
15012;SDS011;7603;49.432;11.418;2024-01-11T04:04:14;49.77;;;22.80;;
15012;SDS011;7603;49.432;11.418;2024-01-11T04:06:40;45.27;;;24.77;;
15012;SDS011;7603;49.432;11.418;2024-01-11T04:09:05;55.87;;;25.23;;
15012;SDS011;7603;49.432;11.418;2024-01-11T04:11:31;42.57;;;22.67;;
15012;SDS011;7603;49.432;11.418;2024-01-11T04:13:57;48.57;;;25.07;;
15012;SDS011;7603;49.432;11.418;2024-01-11T04:16:22;46.03;;;23.47;;
15012;SDS011;7603;49.432;11.418;2024-01-11T04:18:48;50.70;;;23.10;;
15012;SDS011;7603;49.432;11.418;2024-01-11T04:21:20;47.73;;;24.20;;
15012;SDS011;7603;49.432;11.418;2024-01-11T04:23:55;50.53;;;22.80;;
15012;SDS011;7603;49.432;11.418;2024-01-11T04:26:22;53.20;;;24.60;;
15012;SDS011;7603;49.432;11.418;2024-01-11T04:28:49;45.53;;;23.37;;
15012;SDS011;7603;49.432;11.418;2024-01-11T04:31:15;45.10;;;23.00;;
15012;SDS011;7603;49.432;11.418;2024-01-11T04:33:42;42.43;;;19.47;;
15012;SDS011;7603;49.432;11.418;2024-01-11T04:36:11;47.13;;;24.67;;
15012;SDS011;7603;49.432;11.418;2024-01-11T04:38:37;53.70;;;24.60;;
15012;SDS011;7603;49.432;11.418;2024-01-11T04:41:13;48.63;;;22.17;;
15012;SDS011;7603;49.432;11.418;2024-01-11T04:43:40;57.47;;;30.30;;
15012;SDS011;7603;49.432;11.418;2024-01-11T04:46:19;50.77;;;26.83;;
15012;SDS011;7603;49.432;11.418;2024-01-11T04:48:46;57.20;;;26.27;;
15012;SDS011;7603;49.432;11.418;2024-01-11T04:51:13;51.50;;;25.00;;
15012;SDS011;7603;49.432;11.418;2024-01-11T04:53:39;47.80;;;22.90;;
15012;SDS011;7603;49.432;11.418;2024-01-11T04:56:06;45.17;;;23.73;;
15012;SDS011;7603;49.432;11.418;2024-01-11T04:58:33;53.70;;;25.40;;
15012;SDS011;7603;49.432;11.418;2024-01-11T05:00:59;55.17;;;24.50;;
15012;SDS011;7603;49.432;11.418;2024-01-11T05:03:25;44.90;;;24.33;;
15012;SDS011;7603;49.432;11.418;2024-01-11T05:05:51;46.10;;;23.23;;
15012;SDS011;7603;49.432;11.418;2024-01-11T05:08:16;46.57;;;25.67;;
15012;SDS011;7603;49.432;11.418;2024-01-11T05:10:42;53.33;;;24.50;;
15012;SDS011;7603;49.432;11.418;2024-01-11T05:13:09;55.70;;;27.87;;
15012;SDS011;7603;49.432;11.418;2024-01-11T05:15:35;59.80;;;28.77;;
15012;SDS011;7603;49.432;11.418;2024-01-11T05:18:00;47.73;;;24.70;;
15012;SDS011;7603;49.432;11.418;2024-01-11T05:20:26;70.17;;;32.87;;
15012;SDS011;7603;49.432;11.418;2024-01-11T05:22:52;55.77;;;26.50;;
15012;SDS011;7603;49.432;11.418;2024-01-11T05:25:17;51.40;;;26.47;;
15012;SDS011;7603;49.432;11.418;2024-01-11T05:27:43;48.13;;;25.00;;
15012;SDS011;7603;49.432;11.418;2024-01-11T05:30:09;50.97;;;25.43;;
15012;SDS011;7603;49.432;11.418;2024-01-11T05:32:34;50.73;;;26.13;;
15012;SDS011;7603;49.432;11.418;2024-01-11T05:35:00;54.83;;;25.27;;
15012;SDS011;7603;49.432;11.418;2024-01-11T05:37:26;52.90;;;24.40;;
15012;SDS011;7603;49.432;11.418;2024-01-11T05:39:51;61.33;;;32.38;;
15012;SDS011;7603;49.432;11.418;2024-01-11T05:42:19;61.47;;;27.43;;
15012;SDS011;7603;49.432;11.418;2024-01-11T05:44:44;56.27;;;27.40;;
15012;SDS011;7603;49.432;11.418;2024-01-11T05:47:10;50.37;;;23.97;;
15012;SDS011;7603;49.432;11.418;2024-01-11T05:49:36;51.70;;;26.63;;
15012;SDS011;7603;49.432;11.418;2024-01-11T05:52:01;50.93;;;24.77;;
15012;SDS011;7603;49.432;11.418;2024-01-11T05:54:27;47.87;;;24.27;;
15012;SDS011;7603;49.432;11.418;2024-01-11T05:56:53;52.53;;;24.27;;
15012;SDS011;7603;49.432;11.418;2024-01-11T05:59:22;55.03;;;26.80;;
15012;SDS011;7603;49.432;11.418;2024-01-11T06:01:48;54.70;;;24.57;;
15012;SDS011;7603;49.432;11.418;2024-01-11T06:04:14;52.30;;;24.50;;
15012;SDS011;7603;49.432;11.418;2024-01-11T06:06:39;53.93;;;25.23;;
15012;SDS011;7603;49.432;11.418;2024-01-11T06:09:05;51.27;;;24.60;;
15012;SDS011;7603;49.432;11.418;2024-01-11T06:11:32;50.70;;;24.37;;
15012;SDS011;7603;49.432;11.418;2024-01-11T06:13:57;46.20;;;23.50;;
15012;SDS011;7603;49.432;11.418;2024-01-11T06:16:23;50.53;;;24.57;;
15012;SDS011;7603;49.432;11.418;2024-01-11T06:18:49;65.90;;;29.90;;
15012;SDS011;7603;49.432;11.418;2024-01-11T06:21:15;55.37;;;25.20;;
15012;SDS011;7603;49.432;11.418;2024-01-11T06:23:43;53.07;;;25.57;;
15012;SDS011;7603;49.432;11.418;2024-01-11T06:26:09;48.90;;;24.37;;
15012;SDS011;7603;49.432;11.418;2024-01-11T06:28:35;53.93;;;24.97;;
15012;SDS011;7603;49.432;11.418;2024-01-11T06:31:01;54.37;;;24.73;;
15012;SDS011;7603;49.432;11.418;2024-01-11T06:33:27;54.43;;;25.00;;
15012;SDS011;7603;49.432;11.418;2024-01-11T06:35:53;51.70;;;23.53;;
15012;SDS011;7603;49.432;11.418;2024-01-11T06:38:19;58.37;;;25.67;;
15012;SDS011;7603;49.432;11.418;2024-01-11T06:40:44;65.03;;;26.83;;
15012;SDS011;7603;49.432;11.418;2024-01-11T06:43:10;56.73;;;29.00;;
15012;SDS011;7603;49.432;11.418;2024-01-11T06:45:36;56.20;;;25.37;;
15012;SDS011;7603;49.432;11.418;2024-01-11T06:48:02;48.90;;;25.10;;
15012;SDS011;7603;49.432;11.418;2024-01-11T06:50:28;47.50;;;24.23;;
15012;SDS011;7603;49.432;11.418;2024-01-11T06:52:53;53.40;;;24.70;;
15012;SDS011;7603;49.432;11.418;2024-01-11T06:55:19;55.53;;;27.40;;
15012;SDS011;7603;49.432;11.418;2024-01-11T06:57:48;52.27;;;24.73;;
15012;SDS011;7603;49.432;11.418;2024-01-11T07:00:13;51.83;;;26.17;;
15012;SDS011;7603;49.432;11.418;2024-01-11T07:02:39;46.30;;;24.30;;
15012;SDS011;7603;49.432;11.418;2024-01-11T07:05:05;52.43;;;26.37;;
15012;SDS011;7603;49.432;11.418;2024-01-11T07:07:31;52.57;;;26.20;;
15012;SDS011;7603;49.432;11.418;2024-01-11T07:09:57;55.37;;;24.70;;
15012;SDS011;7603;49.432;11.418;2024-01-11T07:12:23;49.00;;;25.57;;
15012;SDS011;7603;49.432;11.418;2024-01-11T07:14:50;54.77;;;25.90;;
15012;SDS011;7603;49.432;11.418;2024-01-11T07:17:16;60.43;;;25.80;;
15012;SDS011;7603;49.432;11.418;2024-01-11T07:19:42;52.03;;;24.70;;
15012;SDS011;7603;49.432;11.418;2024-01-11T07:22:08;47.93;;;26.13;;
15012;SDS011;7603;49.432;11.418;2024-01-11T07:24:34;68.83;;;27.47;;
15012;SDS011;7603;49.432;11.418;2024-01-11T07:27:05;65.03;;;27.80;;
15012;SDS011;7603;49.432;11.418;2024-01-11T07:29:32;61.33;;;28.57;;
15012;SDS011;7603;49.432;11.418;2024-01-11T07:31:58;67.20;;;28.30;;
15012;SDS011;7603;49.432;11.418;2024-01-11T07:34:24;65.00;;;30.13;;
15012;SDS011;7603;49.432;11.418;2024-01-11T07:36:51;60.07;;;26.40;;
15012;SDS011;7603;49.432;11.418;2024-01-11T07:39:17;55.23;;;28.20;;
15012;SDS011;7603;49.432;11.418;2024-01-11T07:41:43;56.07;;;28.80;;
15012;SDS011;7603;49.432;11.418;2024-01-11T07:44:09;54.93;;;28.40;;
15012;SDS011;7603;49.432;11.418;2024-01-11T07:46:34;54.87;;;26.13;;
15012;SDS011;7603;49.432;11.418;2024-01-11T07:49:01;64.23;;;27.13;;
15012;SDS011;7603;49.432;11.418;2024-01-11T07:51:30;50.60;;;25.17;;
15012;SDS011;7603;49.432;11.418;2024-01-11T07:53:56;63.23;;;28.33;;
15012;SDS011;7603;49.432;11.418;2024-01-11T07:56:22;56.33;;;28.33;;
15012;SDS011;7603;49.432;11.418;2024-01-11T07:58:47;69.10;;;29.30;;
15012;SDS011;7603;49.432;11.418;2024-01-11T08:01:14;66.63;;;30.30;;
15012;SDS011;7603;49.432;11.418;2024-01-11T08:03:41;62.60;;;27.90;;
15012;SDS011;7603;49.432;11.418;2024-01-11T08:06:06;52.50;;;26.70;;
15012;SDS011;7603;49.432;11.418;2024-01-11T08:08:33;58.20;;;25.73;;
15012;SDS011;7603;49.432;11.418;2024-01-11T08:11:04;51.07;;;25.83;;
15012;SDS011;7603;49.432;11.418;2024-01-11T08:13:30;48.33;;;25.73;;
15012;SDS011;7603;49.432;11.418;2024-01-11T08:15:56;56.33;;;25.50;;
15012;SDS011;7603;49.432;11.418;2024-01-11T08:18:22;55.90;;;26.50;;
15012;SDS011;7603;49.432;11.418;2024-01-11T08:20:49;53.43;;;29.23;;
15012;SDS011;7603;49.432;11.418;2024-01-11T08:23:14;58.90;;;29.07;;
15012;SDS011;7603;49.432;11.418;2024-01-11T08:25:41;64.03;;;28.97;;
15012;SDS011;7603;49.432;11.418;2024-01-11T08:28:07;61.30;;;28.70;;
15012;SDS011;7603;49.432;11.418;2024-01-11T08:30:32;50.90;;;27.77;;
15012;SDS011;7603;49.432;11.418;2024-01-11T08:32:58;61.37;;;30.90;;
15012;SDS011;7603;49.432;11.418;2024-01-11T08:35:23;55.67;;;28.23;;
15012;SDS011;7603;49.432;11.418;2024-01-11T08:37:49;57.67;;;27.73;;
15012;SDS011;7603;49.432;11.418;2024-01-11T08:40:15;59.13;;;27.27;;
15012;SDS011;7603;49.432;11.418;2024-01-11T08:42:41;46.37;;;23.30;;
15012;SDS011;7603;49.432;11.418;2024-01-11T08:45:07;40.03;;;21.80;;
15012;SDS011;7603;49.432;11.418;2024-01-11T08:47:34;38.27;;;19.97;;
15012;SDS011;7603;49.432;11.418;2024-01-11T08:50:00;34.97;;;19.97;;
15012;SDS011;7603;49.432;11.418;2024-01-11T08:52:26;41.33;;;21.70;;
15012;SDS011;7603;49.432;11.418;2024-01-11T08:54:52;36.10;;;20.77;;
15012;SDS011;7603;49.432;11.418;2024-01-11T08:57:17;40.27;;;22.60;;
15012;SDS011;7603;49.432;11.418;2024-01-11T08:59:43;40.87;;;23.57;;
15012;SDS011;7603;49.432;11.418;2024-01-11T09:02:09;37.97;;;22.43;;
15012;SDS011;7603;49.432;11.418;2024-01-11T09:04:35;77.35;;;32.67;;
15012;SDS011;7603;49.432;11.418;2024-01-11T09:07:01;61.17;;;29.75;;
15012;SDS011;7603;49.432;11.418;2024-01-11T09:09:27;33.00;;;21.67;;
15012;SDS011;7603;49.432;11.418;2024-01-11T09:11:53;49.42;;;25.77;;
15012;SDS011;7603;49.432;11.418;2024-01-11T09:14:18;49.50;;;27.95;;
15012;SDS011;7603;49.432;11.418;2024-01-11T09:16:44;38.42;;;24.55;;
15012;SDS011;7603;49.432;11.418;2024-01-11T09:19:11;34.97;;;20.75;;
15012;SDS011;7603;49.432;11.418;2024-01-11T09:21:37;31.25;;;22.15;;
15012;SDS011;7603;49.432;11.418;2024-01-11T09:24:02;39.22;;;25.95;;
15012;SDS011;7603;49.432;11.418;2024-01-11T09:26:28;30.25;;;20.67;;
15012;SDS011;7603;49.432;11.418;2024-01-11T09:28:54;32.25;;;21.70;;
15012;SDS011;7603;49.432;11.418;2024-01-11T09:31:19;28.63;;;19.77;;
15012;SDS011;7603;49.432;11.418;2024-01-11T09:33:45;31.02;;;21.17;;
15012;SDS011;7603;49.432;11.418;2024-01-11T09:36:11;32.45;;;20.88;;
15012;SDS011;7603;49.432;11.418;2024-01-11T09:38:38;37.90;;;21.77;;
15012;SDS011;7603;49.432;11.418;2024-01-11T09:41:07;31.35;;;21.35;;
15012;SDS011;7603;49.432;11.418;2024-01-11T09:43:36;29.88;;;22.63;;
15012;SDS011;7603;49.432;11.418;2024-01-11T09:46:05;33.97;;;22.45;;
15012;SDS011;7603;49.432;11.418;2024-01-11T09:48:35;35.13;;;24.30;;
15012;SDS011;7603;49.432;11.418;2024-01-11T09:51:02;35.65;;;23.77;;
15012;SDS011;7603;49.432;11.418;2024-01-11T09:53:34;28.27;;;22.58;;
15012;SDS011;7603;49.432;11.418;2024-01-11T09:56:01;26.73;;;21.75;;
15012;SDS011;7603;49.432;11.418;2024-01-11T09:58:35;30.35;;;22.25;;
15012;SDS011;7603;49.432;11.418;2024-01-11T10:01:07;29.35;;;23.02;;
15012;SDS011;7603;49.432;11.418;2024-01-11T10:03:35;30.63;;;22.73;;
15012;SDS011;7603;49.432;11.418;2024-01-11T10:06:02;30.25;;;24.52;;
15012;SDS011;7603;49.432;11.418;2024-01-11T10:08:28;27.58;;;20.92;;
15012;SDS011;7603;49.432;11.418;2024-01-11T10:10:56;28.42;;;21.10;;
15012;SDS011;7603;49.432;11.418;2024-01-11T10:13:29;35.13;;;21.33;;
15012;SDS011;7603;49.432;11.418;2024-01-11T10:16:14;25.95;;;21.60;;
15012;SDS011;7603;49.432;11.418;2024-01-11T10:18:40;25.55;;;21.42;;
15012;SDS011;7603;49.432;11.418;2024-01-11T10:21:06;28.30;;;21.02;;
15012;SDS011;7603;49.432;11.418;2024-01-11T10:23:34;22.98;;;20.50;;
15012;SDS011;7603;49.432;11.418;2024-01-11T10:26:04;23.33;;;19.90;;
15012;SDS011;7603;49.432;11.418;2024-01-11T10:28:32;21.55;;;19.25;;
15012;SDS011;7603;49.432;11.418;2024-01-11T10:31:02;25.08;;;19.65;;
15012;SDS011;7603;49.432;11.418;2024-01-11T10:33:32;22.48;;;19.05;;
15012;SDS011;7603;49.432;11.418;2024-01-11T10:35:58;21.02;;;18.52;;
15012;SDS011;7603;49.432;11.418;2024-01-11T10:38:25;22.80;;;18.02;;
15012;SDS011;7603;49.432;11.418;2024-01-11T10:40:52;20.95;;;18.05;;
15012;SDS011;7603;49.432;11.418;2024-01-11T10:43:24;20.77;;;18.58;;
15012;SDS011;7603;49.432;11.418;2024-01-11T10:45:50;20.27;;;18.13;;
15012;SDS011;7603;49.432;11.418;2024-01-11T10:48:19;21.63;;;19.33;;
15012;SDS011;7603;49.432;11.418;2024-01-11T10:50:49;21.30;;;19.00;;
15012;SDS011;7603;49.432;11.418;2024-01-11T10:56:12;22.02;;;19.20;;
15012;SDS011;7603;49.432;11.418;2024-01-11T10:58:40;21.17;;;19.05;;
15012;SDS011;7603;49.432;11.418;2024-01-11T11:01:06;22.65;;;18.63;;
15012;SDS011;7603;49.432;11.418;2024-01-11T11:03:37;21.77;;;19.35;;
15012;SDS011;7603;49.432;11.418;2024-01-11T11:06:06;21.45;;;18.52;;
15012;SDS011;7603;49.432;11.418;2024-01-11T11:08:32;21.05;;;18.83;;
15012;SDS011;7603;49.432;11.418;2024-01-11T11:11:00;20.65;;;18.55;;
15012;SDS011;7603;49.432;11.418;2024-01-11T11:13:28;22.90;;;19.52;;
15012;SDS011;7603;49.432;11.418;2024-01-11T11:15:57;21.50;;;19.40;;
15012;SDS011;7603;49.432;11.418;2024-01-11T11:18:24;20.67;;;18.65;;
15012;SDS011;7603;49.432;11.418;2024-01-11T11:20:50;22.63;;;20.15;;
15012;SDS011;7603;49.432;11.418;2024-01-11T11:23:17;23.38;;;20.02;;
15012;SDS011;7603;49.432;11.418;2024-01-11T11:25:47;20.95;;;18.27;;
15012;SDS011;7603;49.432;11.418;2024-01-11T11:28:15;21.20;;;19.02;;
15012;SDS011;7603;49.432;11.418;2024-01-11T11:30:42;25.30;;;20.40;;
15012;SDS011;7603;49.432;11.418;2024-01-11T11:33:19;23.27;;;20.52;;
15012;SDS011;7603;49.432;11.418;2024-01-11T11:35:52;21.63;;;19.40;;
15012;SDS011;7603;49.432;11.418;2024-01-11T11:38:20;21.83;;;19.67;;
15012;SDS011;7603;49.432;11.418;2024-01-11T11:40:47;20.90;;;18.90;;
15012;SDS011;7603;49.432;11.418;2024-01-11T11:43:17;23.23;;;19.40;;
15012;SDS011;7603;49.432;11.418;2024-01-11T11:45:43;22.45;;;20.15;;
15012;SDS011;7603;49.432;11.418;2024-01-11T11:51:01;20.70;;;18.55;;
15012;SDS011;7603;49.432;11.418;2024-01-11T11:53:34;20.73;;;18.65;;
15012;SDS011;7603;49.432;11.418;2024-01-11T11:56:05;20.33;;;18.33;;
15012;SDS011;7603;49.432;11.418;2024-01-11T11:58:32;19.23;;;17.23;;
15012;SDS011;7603;49.432;11.418;2024-01-11T12:00:59;19.73;;;17.83;;
15012;SDS011;7603;49.432;11.418;2024-01-11T12:03:29;19.65;;;17.73;;
15012;SDS011;7603;49.432;11.418;2024-01-11T12:06:02;20.10;;;18.00;;
15012;SDS011;7603;49.432;11.418;2024-01-11T12:08:28;20.67;;;18.67;;
15012;SDS011;7603;49.432;11.418;2024-01-11T12:10:55;20.30;;;18.17;;
15012;SDS011;7603;49.432;11.418;2024-01-11T12:13:21;19.77;;;17.70;;
15012;SDS011;7603;49.432;11.418;2024-01-11T12:15:47;19.40;;;17.60;;
15012;SDS011;7603;49.432;11.418;2024-01-11T12:18:13;19.33;;;17.42;;
15012;SDS011;7603;49.432;11.418;2024-01-11T12:20:39;19.75;;;17.67;;
15012;SDS011;7603;49.432;11.418;2024-01-11T12:23:04;19.73;;;17.80;;
15012;SDS011;7603;49.432;11.418;2024-01-11T12:25:31;18.98;;;16.98;;
15012;SDS011;7603;49.432;11.418;2024-01-11T12:27:56;18.67;;;17.08;;
15012;SDS011;7603;49.432;11.418;2024-01-11T12:30:23;17.85;;;16.13;;
15012;SDS011;7603;49.432;11.418;2024-01-11T12:32:50;18.55;;;16.75;;
15012;SDS011;7603;49.432;11.418;2024-01-11T12:35:17;20.30;;;17.38;;
15012;SDS011;7603;49.432;11.418;2024-01-11T12:37:58;19.35;;;17.58;;
15012;SDS011;7603;49.432;11.418;2024-01-11T12:40:25;18.02;;;16.42;;
15012;SDS011;7603;49.432;11.418;2024-01-11T12:42:52;19.33;;;17.63;;
15012;SDS011;7603;49.432;11.418;2024-01-11T12:45:18;18.73;;;16.88;;
15012;SDS011;7603;49.432;11.418;2024-01-11T12:47:47;19.00;;;17.30;;
15012;SDS011;7603;49.432;11.418;2024-01-11T12:50:13;18.15;;;16.30;;
15012;SDS011;7603;49.432;11.418;2024-01-11T12:52:39;23.30;;;16.10;;
15012;SDS011;7603;49.432;11.418;2024-01-11T12:55:07;18.33;;;16.60;;
15012;SDS011;7603;49.432;11.418;2024-01-11T12:57:34;17.83;;;16.15;;
15012;SDS011;7603;49.432;11.418;2024-01-11T13:00:09;19.23;;;17.42;;
15012;SDS011;7603;49.432;11.418;2024-01-11T13:02:36;17.85;;;16.05;;
15012;SDS011;7603;49.432;11.418;2024-01-11T13:05:03;17.88;;;16.17;;
15012;SDS011;7603;49.432;11.418;2024-01-11T13:07:30;16.60;;;15.10;;
15012;SDS011;7603;49.432;11.418;2024-01-11T13:09:56;17.17;;;15.68;;
15012;SDS011;7603;49.432;11.418;2024-01-11T13:12:21;16.58;;;15.07;;
15012;SDS011;7603;49.432;11.418;2024-01-11T13:14:47;16.10;;;14.65;;
15012;SDS011;7603;49.432;11.418;2024-01-11T13:17:13;16.23;;;14.73;;
15012;SDS011;7603;49.432;11.418;2024-01-11T13:19:39;16.73;;;15.13;;
15012;SDS011;7603;49.432;11.418;2024-01-11T13:22:05;17.42;;;15.75;;
15012;SDS011;7603;49.432;11.418;2024-01-11T13:24:30;15.98;;;14.40;;
15012;SDS011;7603;49.432;11.418;2024-01-11T13:26:56;15.05;;;13.85;;
15012;SDS011;7603;49.432;11.418;2024-01-11T13:29:22;15.23;;;13.93;;
15012;SDS011;7603;49.432;11.418;2024-01-11T13:31:47;15.15;;;13.85;;
15012;SDS011;7603;49.432;11.418;2024-01-11T13:34:13;15.40;;;14.13;;
15012;SDS011;7603;49.432;11.418;2024-01-11T13:36:39;15.02;;;13.70;;
15012;SDS011;7603;49.432;11.418;2024-01-11T13:39:05;14.43;;;13.25;;
15012;SDS011;7603;49.432;11.418;2024-01-11T13:41:33;14.48;;;13.18;;
15012;SDS011;7603;49.432;11.418;2024-01-11T13:43:59;15.48;;;14.07;;
15012;SDS011;7603;49.432;11.418;2024-01-11T13:46:25;16.23;;;14.73;;
15012;SDS011;7603;49.432;11.418;2024-01-11T13:48:50;17.45;;;15.77;;
15012;SDS011;7603;49.432;11.418;2024-01-11T13:51:16;17.40;;;15.45;;
15012;SDS011;7603;49.432;11.418;2024-01-11T13:53:42;15.55;;;13.95;;
15012;SDS011;7603;49.432;11.418;2024-01-11T13:56:08;15.35;;;13.77;;
15012;SDS011;7603;49.432;11.418;2024-01-11T13:58:34;16.10;;;14.60;;
15012;SDS011;7603;49.432;11.418;2024-01-11T14:01:00;14.93;;;13.52;;
15012;SDS011;7603;49.432;11.418;2024-01-11T14:03:25;15.20;;;13.90;;
15012;SDS011;7603;49.432;11.418;2024-01-11T14:05:51;14.80;;;13.43;;
15012;SDS011;7603;49.432;11.418;2024-01-11T14:08:17;16.02;;;14.52;;
15012;SDS011;7603;49.432;11.418;2024-01-11T14:10:43;15.02;;;13.57;;
15012;SDS011;7603;49.432;11.418;2024-01-11T14:13:09;14.23;;;13.00;;
15012;SDS011;7603;49.432;11.418;2024-01-11T14:15:34;15.27;;;13.85;;
15012;SDS011;7603;49.432;11.418;2024-01-11T14:18:00;14.50;;;13.30;;
15012;SDS011;7603;49.432;11.418;2024-01-11T14:20:26;15.07;;;13.70;;
15012;SDS011;7603;49.432;11.418;2024-01-11T14:22:52;14.13;;;12.93;;